sensor_id;sensor_type;location;lat;lon;timestamp;P1;durP1;ratioP1;P2;durP2;ratioP2
10339;SDS011;5215;48.676;9.022;2022-11-06T00:00:07;3.67;;;2.80;;
10339;SDS011;5215;48.676;9.022;2022-11-06T00:02:34;3.80;;;3.00;;
10339;SDS011;5215;48.676;9.022;2022-11-06T00:05:01;3.37;;;2.77;;
10339;SDS011;5215;48.676;9.022;2022-11-06T00:07:43;4.23;;;3.23;;
10339;SDS011;5215;48.676;9.022;2022-11-06T00:10:12;3.23;;;2.93;;
10339;SDS011;5215;48.676;9.022;2022-11-06T00:12:39;4.13;;;3.20;;
10339;SDS011;5215;48.676;9.022;2022-11-06T00:15:05;4.77;;;3.40;;
10339;SDS011;5215;48.676;9.022;2022-11-06T00:17:34;4.07;;;3.03;;
10339;SDS011;5215;48.676;9.022;2022-11-06T00:20:01;3.20;;;2.83;;
10339;SDS011;5215;48.676;9.022;2022-11-06T00:22:30;5.57;;;3.30;;
10339;SDS011;5215;48.676;9.022;2022-11-06T00:24:57;4.50;;;3.43;;
10339;SDS011;5215;48.676;9.022;2022-11-06T00:27:26;3.27;;;2.93;;
10339;SDS011;5215;48.676;9.022;2022-11-06T00:29:52;4.17;;;3.50;;
10339;SDS011;5215;48.676;9.022;2022-11-06T00:32:19;4.03;;;2.97;;
10339;SDS011;5215;48.676;9.022;2022-11-06T00:34:46;3.43;;;3.00;;
10339;SDS011;5215;48.676;9.022;2022-11-06T00:37:12;3.77;;;2.73;;
10339;SDS011;5215;48.676;9.022;2022-11-06T00:39:39;6.00;;;3.60;;
10339;SDS011;5215;48.676;9.022;2022-11-06T00:42:06;4.70;;;3.03;;
10339;SDS011;5215;48.676;9.022;2022-11-06T00:44:34;4.57;;;3.40;;
10339;SDS011;5215;48.676;9.022;2022-11-06T00:47:00;4.30;;;3.07;;
10339;SDS011;5215;48.676;9.022;2022-11-06T00:49:27;4.00;;;2.97;;
10339;SDS011;5215;48.676;9.022;2022-11-06T00:51:53;3.33;;;3.00;;
10339;SDS011;5215;48.676;9.022;2022-11-06T00:54:20;4.60;;;3.37;;
10339;SDS011;5215;48.676;9.022;2022-11-06T00:56:46;4.47;;;3.00;;
10339;SDS011;5215;48.676;9.022;2022-11-06T00:59:13;5.23;;;3.13;;
10339;SDS011;5215;48.676;9.022;2022-11-06T01:01:42;4.13;;;2.83;;
10339;SDS011;5215;48.676;9.022;2022-11-06T01:04:10;4.47;;;3.53;;
10339;SDS011;5215;48.676;9.022;2022-11-06T01:06:40;5.10;;;3.37;;
10339;SDS011;5215;48.676;9.022;2022-11-06T01:09:10;4.67;;;3.10;;
10339;SDS011;5215;48.676;9.022;2022-11-06T01:11:39;3.83;;;3.40;;
10339;SDS011;5215;48.676;9.022;2022-11-06T01:14:07;4.27;;;3.17;;
10339;SDS011;5215;48.676;9.022;2022-11-06T01:16:36;5.20;;;3.80;;
10339;SDS011;5215;48.676;9.022;2022-11-06T01:19:04;6.00;;;3.40;;
10339;SDS011;5215;48.676;9.022;2022-11-06T01:21:31;3.67;;;2.90;;
10339;SDS011;5215;48.676;9.022;2022-11-06T01:24:01;4.40;;;2.97;;
10339;SDS011;5215;48.676;9.022;2022-11-06T01:26:31;3.67;;;3.37;;
10339;SDS011;5215;48.676;9.022;2022-11-06T01:28:58;4.63;;;2.90;;
10339;SDS011;5215;48.676;9.022;2022-11-06T01:31:26;4.00;;;3.37;;
10339;SDS011;5215;48.676;9.022;2022-11-06T01:33:54;4.43;;;3.20;;
10339;SDS011;5215;48.676;9.022;2022-11-06T01:36:23;3.80;;;2.90;;
10339;SDS011;5215;48.676;9.022;2022-11-06T01:38:51;5.23;;;3.00;;
10339;SDS011;5215;48.676;9.022;2022-11-06T01:41:19;3.37;;;2.97;;
10339;SDS011;5215;48.676;9.022;2022-11-06T01:43:49;3.83;;;2.73;;
10339;SDS011;5215;48.676;9.022;2022-11-06T01:46:18;3.20;;;2.43;;
10339;SDS011;5215;48.676;9.022;2022-11-06T01:48:46;4.77;;;2.90;;
10339;SDS011;5215;48.676;9.022;2022-11-06T01:51:17;3.27;;;2.77;;
10339;SDS011;5215;48.676;9.022;2022-11-06T01:53:46;7.80;;;3.20;;
10339;SDS011;5215;48.676;9.022;2022-11-06T01:56:13;5.30;;;3.07;;
10339;SDS011;5215;48.676;9.022;2022-11-06T01:58:42;3.83;;;2.70;;
10339;SDS011;5215;48.676;9.022;2022-11-06T02:01:11;3.63;;;2.63;;
10339;SDS011;5215;48.676;9.022;2022-11-06T02:03:38;3.90;;;2.47;;
10339;SDS011;5215;48.676;9.022;2022-11-06T02:06:10;2.10;;;1.90;;
10339;SDS011;5215;48.676;9.022;2022-11-06T02:08:37;3.17;;;2.47;;
10339;SDS011;5215;48.676;9.022;2022-11-06T02:11:05;4.07;;;2.60;;
10339;SDS011;5215;48.676;9.022;2022-11-06T02:13:34;4.07;;;2.83;;
10339;SDS011;5215;48.676;9.022;2022-11-06T02:16:14;3.03;;;2.63;;
10339;SDS011;5215;48.676;9.022;2022-11-06T02:18:54;4.43;;;3.50;;
10339;SDS011;5215;48.676;9.022;2022-11-06T02:21:46;5.10;;;3.00;;
10339;SDS011;5215;48.676;9.022;2022-11-06T02:24:38;3.50;;;2.47;;
10339;SDS011;5215;48.676;9.022;2022-11-06T02:27:15;3.23;;;2.53;;
10339;SDS011;5215;48.676;9.022;2022-11-06T02:29:46;5.37;;;2.90;;
10339;SDS011;5215;48.676;9.022;2022-11-06T02:32:17;3.07;;;2.60;;
10339;SDS011;5215;48.676;9.022;2022-11-06T02:34:46;4.77;;;3.00;;
10339;SDS011;5215;48.676;9.022;2022-11-06T02:37:17;4.83;;;2.83;;
10339;SDS011;5215;48.676;9.022;2022-11-06T02:39:49;5.17;;;2.63;;
10339;SDS011;5215;48.676;9.022;2022-11-06T02:42:18;4.60;;;2.53;;
10339;SDS011;5215;48.676;9.022;2022-11-06T02:44:46;3.17;;;2.73;;
10339;SDS011;5215;48.676;9.022;2022-11-06T02:47:16;3.03;;;2.73;;
10339;SDS011;5215;48.676;9.022;2022-11-06T02:49:45;4.37;;;3.20;;
10339;SDS011;5215;48.676;9.022;2022-11-06T02:52:16;4.13;;;2.67;;
10339;SDS011;5215;48.676;9.022;2022-11-06T02:54:47;3.53;;;3.00;;
10339;SDS011;5215;48.676;9.022;2022-11-06T02:57:20;3.50;;;2.77;;
10339;SDS011;5215;48.676;9.022;2022-11-06T02:59:51;4.50;;;3.00;;
10339;SDS011;5215;48.676;9.022;2022-11-06T03:02:27;3.97;;;2.90;;
10339;SDS011;5215;48.676;9.022;2022-11-06T03:04:59;4.40;;;2.47;;
10339;SDS011;5215;48.676;9.022;2022-11-06T03:07:32;3.47;;;2.37;;
10339;SDS011;5215;48.676;9.022;2022-11-06T03:10:02;2.90;;;2.47;;
10339;SDS011;5215;48.676;9.022;2022-11-06T03:12:33;3.60;;;2.70;;
10339;SDS011;5215;48.676;9.022;2022-11-06T03:15:10;4.87;;;2.97;;
10339;SDS011;5215;48.676;9.022;2022-11-06T03:17:45;4.00;;;2.57;;
10339;SDS011;5215;48.676;9.022;2022-11-06T03:20:19;3.53;;;2.60;;
10339;SDS011;5215;48.676;9.022;2022-11-06T03:22:51;3.60;;;2.43;;
10339;SDS011;5215;48.676;9.022;2022-11-06T03:25:22;4.27;;;3.27;;
10339;SDS011;5215;48.676;9.022;2022-11-06T03:27:54;5.63;;;2.87;;
10339;SDS011;5215;48.676;9.022;2022-11-06T03:30:27;4.37;;;3.07;;
10339;SDS011;5215;48.676;9.022;2022-11-06T03:32:55;4.43;;;2.87;;
10339;SDS011;5215;48.676;9.022;2022-11-06T03:35:27;3.50;;;2.30;;
10339;SDS011;5215;48.676;9.022;2022-11-06T03:38:00;4.13;;;2.60;;
10339;SDS011;5215;48.676;9.022;2022-11-06T03:40:31;4.57;;;3.33;;
10339;SDS011;5215;48.676;9.022;2022-11-06T03:43:04;3.50;;;2.73;;
10339;SDS011;5215;48.676;9.022;2022-11-06T03:45:33;4.20;;;2.67;;
10339;SDS011;5215;48.676;9.022;2022-11-06T03:48:06;3.23;;;2.63;;
10339;SDS011;5215;48.676;9.022;2022-11-06T03:50:36;6.37;;;3.00;;
10339;SDS011;5215;48.676;9.022;2022-11-06T03:53:10;3.70;;;2.53;;
10339;SDS011;5215;48.676;9.022;2022-11-06T03:55:41;3.17;;;2.37;;
10339;SDS011;5215;48.676;9.022;2022-11-06T03:58:15;2.83;;;2.00;;
10339;SDS011;5215;48.676;9.022;2022-11-06T04:00:45;5.00;;;2.80;;
10339;SDS011;5215;48.676;9.022;2022-11-06T04:03:15;3.27;;;2.37;;
10339;SDS011;5215;48.676;9.022;2022-11-06T04:05:49;3.90;;;2.70;;
10339;SDS011;5215;48.676;9.022;2022-11-06T04:08:20;3.20;;;2.73;;
10339;SDS011;5215;48.676;9.022;2022-11-06T04:11:09;3.67;;;3.00;;
10339;SDS011;5215;48.676;9.022;2022-11-06T04:13:59;3.93;;;2.70;;
10339;SDS011;5215;48.676;9.022;2022-11-06T04:16:30;3.77;;;2.30;;
10339;SDS011;5215;48.676;9.022;2022-11-06T04:18:59;2.77;;;2.07;;
10339;SDS011;5215;48.676;9.022;2022-11-06T04:21:29;4.13;;;2.73;;
10339;SDS011;5215;48.676;9.022;2022-11-06T04:24:07;2.67;;;2.30;;
10339;SDS011;5215;48.676;9.022;2022-11-06T04:26:59;3.63;;;2.57;;
10339;SDS011;5215;48.676;9.022;2022-11-06T04:29:40;2.63;;;2.33;;
10339;SDS011;5215;48.676;9.022;2022-11-06T04:32:16;2.73;;;2.43;;
10339;SDS011;5215;48.676;9.022;2022-11-06T04:34:53;3.07;;;2.73;;
10339;SDS011;5215;48.676;9.022;2022-11-06T04:37:29;4.17;;;2.63;;
10339;SDS011;5215;48.676;9.022;2022-11-06T04:40:02;7.67;;;2.50;;
10339;SDS011;5215;48.676;9.022;2022-11-06T04:42:35;2.50;;;2.30;;
10339;SDS011;5215;48.676;9.022;2022-11-06T04:45:09;3.77;;;2.30;;
10339;SDS011;5215;48.676;9.022;2022-11-06T04:47:41;3.97;;;2.40;;
10339;SDS011;5215;48.676;9.022;2022-11-06T04:50:09;3.00;;;2.50;;
10339;SDS011;5215;48.676;9.022;2022-11-06T04:52:39;3.27;;;2.33;;
10339;SDS011;5215;48.676;9.022;2022-11-06T04:55:06;3.60;;;2.50;;
10339;SDS011;5215;48.676;9.022;2022-11-06T04:57:33;5.00;;;2.83;;
10339;SDS011;5215;48.676;9.022;2022-11-06T05:00:00;3.73;;;2.40;;
10339;SDS011;5215;48.676;9.022;2022-11-06T05:02:28;3.27;;;2.33;;
10339;SDS011;5215;48.676;9.022;2022-11-06T05:04:54;2.93;;;2.60;;
10339;SDS011;5215;48.676;9.022;2022-11-06T05:07:21;2.80;;;2.50;;
10339;SDS011;5215;48.676;9.022;2022-11-06T05:09:47;3.50;;;2.27;;
10339;SDS011;5215;48.676;9.022;2022-11-06T05:12:14;3.17;;;2.00;;
10339;SDS011;5215;48.676;9.022;2022-11-06T05:14:40;3.60;;;2.63;;
10339;SDS011;5215;48.676;9.022;2022-11-06T05:17:07;4.70;;;2.60;;
10339;SDS011;5215;48.676;9.022;2022-11-06T05:19:35;3.23;;;2.23;;
10339;SDS011;5215;48.676;9.022;2022-11-06T05:22:01;2.23;;;2.03;;
10339;SDS011;5215;48.676;9.022;2022-11-06T05:24:46;3.23;;;2.50;;
10339;SDS011;5215;48.676;9.022;2022-11-06T05:27:12;4.10;;;2.60;;
10339;SDS011;5215;48.676;9.022;2022-11-06T05:29:39;2.97;;;2.40;;
10339;SDS011;5215;48.676;9.022;2022-11-06T05:32:06;3.03;;;2.30;;
10339;SDS011;5215;48.676;9.022;2022-11-06T05:34:32;3.23;;;2.40;;
10339;SDS011;5215;48.676;9.022;2022-11-06T05:37:00;2.67;;;2.37;;
10339;SDS011;5215;48.676;9.022;2022-11-06T05:39:27;2.90;;;1.90;;
10339;SDS011;5215;48.676;9.022;2022-11-06T05:41:53;2.53;;;2.13;;
10339;SDS011;5215;48.676;9.022;2022-11-06T05:44:20;3.27;;;2.23;;
10339;SDS011;5215;48.676;9.022;2022-11-06T05:46:46;2.80;;;1.93;;
10339;SDS011;5215;48.676;9.022;2022-11-06T05:49:13;2.73;;;2.20;;
10339;SDS011;5215;48.676;9.022;2022-11-06T05:51:39;2.30;;;2.10;;
10339;SDS011;5215;48.676;9.022;2022-11-06T05:54:07;2.63;;;2.07;;
10339;SDS011;5215;48.676;9.022;2022-11-06T05:56:34;2.33;;;2.13;;
10339;SDS011;5215;48.676;9.022;2022-11-06T05:59:00;2.80;;;2.10;;
10339;SDS011;5215;48.676;9.022;2022-11-06T06:01:27;2.77;;;2.30;;
10339;SDS011;5215;48.676;9.022;2022-11-06T06:03:53;2.47;;;2.27;;
10339;SDS011;5215;48.676;9.022;2022-11-06T06:06:20;2.70;;;2.27;;
10339;SDS011;5215;48.676;9.022;2022-11-06T06:08:46;3.03;;;2.50;;
10339;SDS011;5215;48.676;9.022;2022-11-06T06:11:14;3.00;;;2.47;;
10339;SDS011;5215;48.676;9.022;2022-11-06T06:13:41;3.10;;;2.30;;
10339;SDS011;5215;48.676;9.022;2022-11-06T06:16:07;3.13;;;2.17;;
10339;SDS011;5215;48.676;9.022;2022-11-06T06:18:34;3.17;;;2.33;;
10339;SDS011;5215;48.676;9.022;2022-11-06T06:21:00;3.50;;;2.40;;
10339;SDS011;5215;48.676;9.022;2022-11-06T06:23:27;2.30;;;2.00;;
10339;SDS011;5215;48.676;9.022;2022-11-06T06:25:55;4.17;;;2.57;;
10339;SDS011;5215;48.676;9.022;2022-11-06T06:28:23;3.03;;;2.23;;
10339;SDS011;5215;48.676;9.022;2022-11-06T06:30:50;2.77;;;2.47;;
10339;SDS011;5215;48.676;9.022;2022-11-06T06:33:16;2.77;;;2.43;;
10339;SDS011;5215;48.676;9.022;2022-11-06T06:35:43;2.47;;;2.20;;
10339;SDS011;5215;48.676;9.022;2022-11-06T06:38:09;2.83;;;2.03;;
10339;SDS011;5215;48.676;9.022;2022-11-06T06:40:36;2.33;;;2.13;;
10339;SDS011;5215;48.676;9.022;2022-11-06T06:43:02;2.67;;;1.97;;
10339;SDS011;5215;48.676;9.022;2022-11-06T06:45:30;2.20;;;2.00;;
10339;SDS011;5215;48.676;9.022;2022-11-06T06:48:00;3.23;;;2.80;;
10339;SDS011;5215;48.676;9.022;2022-11-06T06:50:27;2.03;;;1.83;;
10339;SDS011;5215;48.676;9.022;2022-11-06T06:52:54;2.17;;;2.00;;
10339;SDS011;5215;48.676;9.022;2022-11-06T06:55:21;2.83;;;2.10;;
10339;SDS011;5215;48.676;9.022;2022-11-06T06:57:47;4.37;;;2.50;;
10339;SDS011;5215;48.676;9.022;2022-11-06T07:00:14;3.77;;;2.50;;
10339;SDS011;5215;48.676;9.022;2022-11-06T07:02:42;2.70;;;2.20;;
10339;SDS011;5215;48.676;9.022;2022-11-06T07:05:08;2.53;;;2.03;;
10339;SDS011;5215;48.676;9.022;2022-11-06T07:07:35;2.00;;;1.90;;
10339;SDS011;5215;48.676;9.022;2022-11-06T07:10:02;2.57;;;2.07;;
10339;SDS011;5215;48.676;9.022;2022-11-06T07:12:29;2.40;;;2.03;;
10339;SDS011;5215;48.676;9.022;2022-11-06T07:14:55;6.73;;;3.60;;
10339;SDS011;5215;48.676;9.022;2022-11-06T07:17:23;4.07;;;3.03;;
10339;SDS011;5215;48.676;9.022;2022-11-06T07:19:51;5.57;;;2.67;;
10339;SDS011;5215;48.676;9.022;2022-11-06T07:22:17;3.00;;;2.47;;
10339;SDS011;5215;48.676;9.022;2022-11-06T07:24:44;2.40;;;1.90;;
10339;SDS011;5215;48.676;9.022;2022-11-06T07:27:10;3.90;;;2.63;;
10339;SDS011;5215;48.676;9.022;2022-11-06T07:29:37;3.73;;;2.30;;
10339;SDS011;5215;48.676;9.022;2022-11-06T07:32:07;4.13;;;2.23;;
10339;SDS011;5215;48.676;9.022;2022-11-06T07:34:33;2.77;;;2.33;;
10339;SDS011;5215;48.676;9.022;2022-11-06T07:37:04;3.57;;;2.70;;
10339;SDS011;5215;48.676;9.022;2022-11-06T07:39:31;2.53;;;2.27;;
10339;SDS011;5215;48.676;9.022;2022-11-06T07:41:58;5.70;;;2.07;;
10339;SDS011;5215;48.676;9.022;2022-11-06T07:44:24;2.87;;;1.90;;
10339;SDS011;5215;48.676;9.022;2022-11-06T07:46:51;2.70;;;2.03;;
10339;SDS011;5215;48.676;9.022;2022-11-06T07:49:17;2.70;;;1.97;;
10339;SDS011;5215;48.676;9.022;2022-11-06T07:51:44;1.65;;;1.45;;
10339;SDS011;5215;48.676;9.022;2022-11-06T07:54:12;1.43;;;1.20;;
10339;SDS011;5215;48.676;9.022;2022-11-06T07:56:38;0.60;;;0.60;;
10339;SDS011;5215;48.676;9.022;2022-11-06T07:59:05;0.47;;;0.47;;
10339;SDS011;5215;48.676;9.022;2022-11-06T08:01:31;0.93;;;0.93;;
10339;SDS011;5215;48.676;9.022;2022-11-06T08:03:58;1.47;;;1.07;;
10339;SDS011;5215;48.676;9.022;2022-11-06T08:06:24;0.80;;;0.80;;
10339;SDS011;5215;48.676;9.022;2022-11-06T08:08:51;1.10;;;0.90;;
10339;SDS011;5215;48.676;9.022;2022-11-06T08:11:19;1.63;;;1.43;;
10339;SDS011;5215;48.676;9.022;2022-11-06T08:13:45;1.20;;;0.80;;
10339;SDS011;5215;48.676;9.022;2022-11-06T08:16:12;2.97;;;1.50;;
10339;SDS011;5215;48.676;9.022;2022-11-06T08:18:40;1.03;;;1.03;;
10339;SDS011;5215;48.676;9.022;2022-11-06T08:21:07;1.23;;;1.13;;
10339;SDS011;5215;48.676;9.022;2022-11-06T08:23:34;1.03;;;0.93;;
10339;SDS011;5215;48.676;9.022;2022-11-06T08:26:02;1.10;;;1.10;;
10339;SDS011;5215;48.676;9.022;2022-11-06T08:28:31;1.00;;;1.00;;
10339;SDS011;5215;48.676;9.022;2022-11-06T08:31:01;1.67;;;1.47;;
10339;SDS011;5215;48.676;9.022;2022-11-06T08:33:28;0.80;;;0.80;;
10339;SDS011;5215;48.676;9.022;2022-11-06T08:35:55;1.00;;;0.77;;
10339;SDS011;5215;48.676;9.022;2022-11-06T08:38:21;2.73;;;2.53;;
10339;SDS011;5215;48.676;9.022;2022-11-06T08:40:48;0.47;;;0.47;;
10339;SDS011;5215;48.676;9.022;2022-11-06T08:43:14;1.13;;;0.73;;
10339;SDS011;5215;48.676;9.022;2022-11-06T08:45:42;1.03;;;0.97;;
10339;SDS011;5215;48.676;9.022;2022-11-06T08:48:09;0.60;;;0.60;;
10339;SDS011;5215;48.676;9.022;2022-11-06T08:50:37;0.87;;;0.87;;
10339;SDS011;5215;48.676;9.022;2022-11-06T08:53:05;1.87;;;1.77;;
10339;SDS011;5215;48.676;9.022;2022-11-06T08:55:33;1.00;;;0.90;;
10339;SDS011;5215;48.676;9.022;2022-11-06T08:58:01;1.00;;;1.00;;
10339;SDS011;5215;48.676;9.022;2022-11-06T09:00:28;0.40;;;0.40;;
10339;SDS011;5215;48.676;9.022;2022-11-06T09:03:03;2.63;;;0.80;;
10339;SDS011;5215;48.676;9.022;2022-11-06T09:05:31;0.93;;;0.93;;
10339;SDS011;5215;48.676;9.022;2022-11-06T09:07:58;0.80;;;0.80;;
10339;SDS011;5215;48.676;9.022;2022-11-06T09:10:25;1.27;;;1.15;;
10339;SDS011;5215;48.676;9.022;2022-11-06T09:12:52;1.03;;;0.83;;
10339;SDS011;5215;48.676;9.022;2022-11-06T09:15:19;0.98;;;0.98;;
10339;SDS011;5215;48.676;9.022;2022-11-06T09:17:47;0.60;;;0.60;;
10339;SDS011;5215;48.676;9.022;2022-11-06T09:20:17;1.50;;;0.93;;
10339;SDS011;5215;48.676;9.022;2022-11-06T09:22:45;0.90;;;0.90;;
10339;SDS011;5215;48.676;9.022;2022-11-06T09:25:11;1.20;;;0.57;;
10339;SDS011;5215;48.676;9.022;2022-11-06T09:27:40;1.38;;;0.75;;
10339;SDS011;5215;48.676;9.022;2022-11-06T09:30:07;1.52;;;1.15;;
10339;SDS011;5215;48.676;9.022;2022-11-06T09:32:35;1.65;;;1.00;;
10339;SDS011;5215;48.676;9.022;2022-11-06T09:35:01;0.85;;;0.85;;
10339;SDS011;5215;48.676;9.022;2022-11-06T09:37:29;1.10;;;1.08;;
10339;SDS011;5215;48.676;9.022;2022-11-06T09:39:56;5.05;;;1.40;;
10339;SDS011;5215;48.676;9.022;2022-11-06T09:42:24;1.42;;;1.05;;
10339;SDS011;5215;48.676;9.022;2022-11-06T09:44:59;2.47;;;1.17;;
10339;SDS011;5215;48.676;9.022;2022-11-06T09:47:33;2.53;;;1.70;;
10339;SDS011;5215;48.676;9.022;2022-11-06T09:50:03;1.83;;;1.73;;
10339;SDS011;5215;48.676;9.022;2022-11-06T09:52:39;1.20;;;1.10;;
10339;SDS011;5215;48.676;9.022;2022-11-06T09:55:10;0.95;;;0.57;;
10339;SDS011;5215;48.676;9.022;2022-11-06T09:57:41;0.93;;;0.93;;
10339;SDS011;5215;48.676;9.022;2022-11-06T10:00:13;0.88;;;0.88;;
10339;SDS011;5215;48.676;9.022;2022-11-06T10:02:42;0.55;;;0.55;;
10339;SDS011;5215;48.676;9.022;2022-11-06T10:05:13;1.02;;;0.68;;
10339;SDS011;5215;48.676;9.022;2022-11-06T10:07:50;1.15;;;0.80;;
10339;SDS011;5215;48.676;9.022;2022-11-06T10:10:19;2.53;;;1.33;;
10339;SDS011;5215;48.676;9.022;2022-11-06T10:13:05;1.50;;;0.98;;
10339;SDS011;5215;48.676;9.022;2022-11-06T10:15:43;0.65;;;0.50;;
10339;SDS011;5215;48.676;9.022;2022-11-06T10:18:16;2.42;;;1.35;;
10339;SDS011;5215;48.676;9.022;2022-11-06T10:20:51;1.48;;;0.90;;
10339;SDS011;5215;48.676;9.022;2022-11-06T10:23:22;0.52;;;0.52;;
10339;SDS011;5215;48.676;9.022;2022-11-06T10:25:58;1.85;;;1.42;;
10339;SDS011;5215;48.676;9.022;2022-11-06T10:31:32;3.47;;;0.95;;
10339;SDS011;5215;48.676;9.022;2022-11-06T10:34:05;1.40;;;0.90;;
10339;SDS011;5215;48.676;9.022;2022-11-06T10:36:35;1.33;;;0.80;;
10339;SDS011;5215;48.676;9.022;2022-11-06T10:39:11;0.88;;;0.88;;
10339;SDS011;5215;48.676;9.022;2022-11-06T10:41:41;1.38;;;0.80;;
10339;SDS011;5215;48.676;9.022;2022-11-06T10:44:13;1.10;;;0.88;;
10339;SDS011;5215;48.676;9.022;2022-11-06T10:46:45;0.93;;;0.77;;
10339;SDS011;5215;48.676;9.022;2022-11-06T10:49:15;1.45;;;1.02;;
10339;SDS011;5215;48.676;9.022;2022-11-06T10:52:02;0.65;;;0.63;;
10339;SDS011;5215;48.676;9.022;2022-11-06T10:54:44;2.90;;;1.98;;
10339;SDS011;5215;48.676;9.022;2022-11-06T10:57:22;0.50;;;0.50;;
10339;SDS011;5215;48.676;9.022;2022-11-06T10:59:56;0.35;;;0.35;;
10339;SDS011;5215;48.676;9.022;2022-11-06T11:02:25;0.25;;;0.25;;
10339;SDS011;5215;48.676;9.022;2022-11-06T11:04:54;0.68;;;0.68;;
10339;SDS011;5215;48.676;9.022;2022-11-06T11:07:22;1.23;;;0.60;;
10339;SDS011;5215;48.676;9.022;2022-11-06T11:09:50;0.63;;;0.63;;
10339;SDS011;5215;48.676;9.022;2022-11-06T11:12:20;0.73;;;0.63;;
10339;SDS011;5215;48.676;9.022;2022-11-06T11:15:03;0.52;;;0.50;;
10339;SDS011;5215;48.676;9.022;2022-11-06T11:17:38;0.85;;;0.85;;
10339;SDS011;5215;48.676;9.022;2022-11-06T11:20:27;0.40;;;0.40;;
10339;SDS011;5215;48.676;9.022;2022-11-06T11:23:06;0.60;;;0.57;;
10339;SDS011;5215;48.676;9.022;2022-11-06T11:25:40;0.55;;;0.55;;
10339;SDS011;5215;48.676;9.022;2022-11-06T11:28:12;0.50;;;0.50;;
10339;SDS011;5215;48.676;9.022;2022-11-06T11:30:49;0.82;;;0.82;;
10339;SDS011;5215;48.676;9.022;2022-11-06T11:33:18;0.28;;;0.22;;
10339;SDS011;5215;48.676;9.022;2022-11-06T11:35:47;0.40;;;0.40;;
10339;SDS011;5215;48.676;9.022;2022-11-06T11:38:16;0.45;;;0.45;;
10339;SDS011;5215;48.676;9.022;2022-11-06T11:40:46;0.63;;;0.60;;
10339;SDS011;5215;48.676;9.022;2022-11-06T11:43:19;0.43;;;0.40;;
10339;SDS011;5215;48.676;9.022;2022-11-06T11:46:01;0.85;;;0.85;;
10339;SDS011;5215;48.676;9.022;2022-11-06T11:48:39;0.85;;;0.63;;
10339;SDS011;5215;48.676;9.022;2022-11-06T11:51:10;0.50;;;0.40;;
10339;SDS011;5215;48.676;9.022;2022-11-06T11:53:44;0.52;;;0.52;;
10339;SDS011;5215;48.676;9.022;2022-11-06T11:56:15;0.90;;;0.52;;
10339;SDS011;5215;48.676;9.022;2022-11-06T11:58:47;0.43;;;0.35;;
10339;SDS011;5215;48.676;9.022;2022-11-06T12:01:16;1.42;;;0.52;;
10339;SDS011;5215;48.676;9.022;2022-11-06T12:03:45;0.50;;;0.50;;
10339;SDS011;5215;48.676;9.022;2022-11-06T12:06:17;0.50;;;0.40;;
10339;SDS011;5215;48.676;9.022;2022-11-06T12:08:45;0.35;;;0.35;;
10339;SDS011;5215;48.676;9.022;2022-11-06T12:11:18;0.70;;;0.57;;
10339;SDS011;5215;48.676;9.022;2022-11-06T12:16:47;0.68;;;0.63;;
10339;SDS011;5215;48.676;9.022;2022-11-06T12:19:15;1.13;;;0.77;;
10339;SDS011;5215;48.676;9.022;2022-11-06T12:21:44;0.65;;;0.65;;
10339;SDS011;5215;48.676;9.022;2022-11-06T12:24:17;0.75;;;0.25;;
10339;SDS011;5215;48.676;9.022;2022-11-06T12:26:50;0.70;;;0.70;;
10339;SDS011;5215;48.676;9.022;2022-11-06T12:29:21;2.10;;;0.70;;
10339;SDS011;5215;48.676;9.022;2022-11-06T12:31:54;1.08;;;0.85;;
10339;SDS011;5215;48.676;9.022;2022-11-06T12:34:30;0.40;;;0.40;;
10339;SDS011;5215;48.676;9.022;2022-11-06T12:37:07;0.38;;;0.38;;
10339;SDS011;5215;48.676;9.022;2022-11-06T12:39:42;0.80;;;0.40;;
10339;SDS011;5215;48.676;9.022;2022-11-06T12:42:15;0.30;;;0.30;;
10339;SDS011;5215;48.676;9.022;2022-11-06T12:44:45;0.55;;;0.55;;
10339;SDS011;5215;48.676;9.022;2022-11-06T12:47:13;1.92;;;0.57;;
10339;SDS011;5215;48.676;9.022;2022-11-06T12:49:57;0.43;;;0.40;;
10339;SDS011;5215;48.676;9.022;2022-11-06T12:52:46;1.10;;;0.70;;
10339;SDS011;5215;48.676;9.022;2022-11-06T12:55:30;0.90;;;0.63;;
10339;SDS011;5215;48.676;9.022;2022-11-06T12:58:04;1.00;;;0.40;;
10339;SDS011;5215;48.676;9.022;2022-11-06T13:00:44;0.38;;;0.38;;
10339;SDS011;5215;48.676;9.022;2022-11-06T13:03:21;0.28;;;0.22;;
10339;SDS011;5215;48.676;9.022;2022-11-06T13:06:06;1.00;;;0.95;;
10339;SDS011;5215;48.676;9.022;2022-11-06T13:08:39;0.30;;;0.30;;
10339;SDS011;5215;48.676;9.022;2022-11-06T13:11:16;0.30;;;0.30;;
10339;SDS011;5215;48.676;9.022;2022-11-06T13:13:54;0.98;;;0.70;;
10339;SDS011;5215;48.676;9.022;2022-11-06T13:16:29;0.50;;;0.50;;
10339;SDS011;5215;48.676;9.022;2022-11-06T13:19:03;0.52;;;0.45;;
10339;SDS011;5215;48.676;9.022;2022-11-06T13:21:37;1.27;;;1.05;;
10339;SDS011;5215;48.676;9.022;2022-11-06T13:24:20;0.95;;;0.55;;
10339;SDS011;5215;48.676;9.022;2022-11-06T13:26:54;0.50;;;0.43;;
10339;SDS011;5215;48.676;9.022;2022-11-06T13:29:29;0.28;;;0.28;;
10339;SDS011;5215;48.676;9.022;2022-11-06T13:31:57;0.43;;;0.40;;
10339;SDS011;5215;48.676;9.022;2022-11-06T13:34:28;0.68;;;0.45;;
10339;SDS011;5215;48.676;9.022;2022-11-06T13:36:57;0.40;;;0.40;;
10339;SDS011;5215;48.676;9.022;2022-11-06T13:39:27;0.40;;;0.40;;
10339;SDS011;5215;48.676;9.022;2022-11-06T13:41:58;0.40;;;0.40;;
10339;SDS011;5215;48.676;9.022;2022-11-06T13:44:26;0.40;;;0.40;;
10339;SDS011;5215;48.676;9.022;2022-11-06T13:46:57;0.50;;;0.20;;
10339;SDS011;5215;48.676;9.022;2022-11-06T13:49:31;0.40;;;0.40;;
10339;SDS011;5215;48.676;9.022;2022-11-06T13:52:04;0.57;;;0.32;;
10339;SDS011;5215;48.676;9.022;2022-11-06T13:54:40;0.63;;;0.50;;
10339;SDS011;5215;48.676;9.022;2022-11-06T13:57:26;0.22;;;0.22;;
10339;SDS011;5215;48.676;9.022;2022-11-06T14:00:15;0.17;;;0.17;;
10339;SDS011;5215;48.676;9.022;2022-11-06T14:05:43;0.65;;;0.57;;
10339;SDS011;5215;48.676;9.022;2022-11-06T14:08:15;0.90;;;0.47;;
10339;SDS011;5215;48.676;9.022;2022-11-06T14:10:46;0.20;;;0.20;;
10339;SDS011;5215;48.676;9.022;2022-11-06T14:13:17;0.20;;;0.20;;
10339;SDS011;5215;48.676;9.022;2022-11-06T14:15:49;0.65;;;0.40;;
10339;SDS011;5215;48.676;9.022;2022-11-06T14:18:24;0.40;;;0.38;;
10339;SDS011;5215;48.676;9.022;2022-11-06T14:20:57;0.20;;;0.20;;
10339;SDS011;5215;48.676;9.022;2022-11-06T14:24:26;0.30;;;0.30;;
10339;SDS011;5215;48.676;9.022;2022-11-06T14:26:55;0.38;;;0.38;;
10339;SDS011;5215;48.676;9.022;2022-11-06T14:29:40;0.35;;;0.35;;
10339;SDS011;5215;48.676;9.022;2022-11-06T14:32:09;0.40;;;0.38;;
10339;SDS011;5215;48.676;9.022;2022-11-06T14:34:37;1.33;;;0.82;;
10339;SDS011;5215;48.676;9.022;2022-11-06T14:40:12;1.38;;;0.60;;
10339;SDS011;5215;48.676;9.022;2022-11-06T14:42:39;0.47;;;0.43;;
10339;SDS011;5215;48.676;9.022;2022-11-06T14:45:09;0.40;;;0.40;;
10339;SDS011;5215;48.676;9.022;2022-11-06T14:47:41;0.30;;;0.30;;
10339;SDS011;5215;48.676;9.022;2022-11-06T14:50:22;0.80;;;0.38;;
10339;SDS011;5215;48.676;9.022;2022-11-06T14:52:53;0.40;;;0.40;;
10339;SDS011;5215;48.676;9.022;2022-11-06T14:55:25;0.00;;;0.00;;
10339;SDS011;5215;48.676;9.022;2022-11-06T14:57:54;0.85;;;0.85;;
10339;SDS011;5215;48.676;9.022;2022-11-06T15:00:35;0.65;;;0.40;;
10339;SDS011;5215;48.676;9.022;2022-11-06T15:03:15;0.55;;;0.40;;
10339;SDS011;5215;48.676;9.022;2022-11-06T15:05:45;0.20;;;0.20;;
10339;SDS011;5215;48.676;9.022;2022-11-06T15:08:13;0.50;;;0.50;;
10339;SDS011;5215;48.676;9.022;2022-11-06T15:17:31;0.13;;;0.13;;
10339;SDS011;5215;48.676;9.022;2022-11-06T15:20:04;0.88;;;0.73;;
10339;SDS011;5215;48.676;9.022;2022-11-06T15:22:47;0.50;;;0.50;;
10339;SDS011;5215;48.676;9.022;2022-11-06T15:25:22;0.50;;;0.50;;
10339;SDS011;5215;48.676;9.022;2022-11-06T15:27:54;1.05;;;0.85;;
10339;SDS011;5215;48.676;9.022;2022-11-06T15:30:23;1.10;;;1.00;;
10339;SDS011;5215;48.676;9.022;2022-11-06T15:32:51;1.70;;;1.30;;
10339;SDS011;5215;48.676;9.022;2022-11-06T15:35:20;1.52;;;1.42;;
10339;SDS011;5215;48.676;9.022;2022-11-06T15:37:49;2.88;;;1.48;;
10339;SDS011;5215;48.676;9.022;2022-11-06T15:40:23;2.45;;;0.88;;